createdAt,value
2019-03-16T00:01:59.214Z,94.30
2019-03-16T00:04:32.325Z,94.30
2019-03-16T00:07:05.057Z,94.10
2019-03-16T00:09:39.165Z,94.20
2019-03-16T00:12:12.268Z,94.50
2019-03-16T00:14:44.995Z,94.40
2019-03-16T00:17:23.402Z,94.20
2019-03-16T00:19:52.914Z,93.90
2019-03-16T00:22:25.842Z,93.90
2019-03-16T00:24:59.028Z,93.50
2019-03-16T00:27:31.990Z,93.40
2019-03-16T00:30:05.199Z,93.30
2019-03-16T00:32:37.930Z,93.00
2019-03-16T00:35:10.854Z,93.20
2019-03-16T00:37:43.888Z,93.20
2019-03-16T00:40:16.778Z,93.40
2019-03-16T00:42:49.776Z,93.70
2019-03-16T00:45:22.693Z,93.70
2019-03-16T00:47:55.768Z,93.60
2019-03-16T00:50:28.561Z,93.70
2019-03-16T00:53:01.383Z,94.00
2019-03-16T00:55:34.132Z,94.00
2019-03-16T00:58:08.311Z,94.40
2019-03-16T01:00:41.279Z,94.60
2019-03-16T01:03:14.259Z,94.60
2019-03-16T01:05:47.242Z,94.70
2019-03-16T01:08:20.357Z,94.50
2019-03-16T01:10:53.217Z,94.30
2019-03-16T01:13:26.344Z,94.30
2019-03-16T01:15:59.557Z,94.20
2019-03-16T01:18:32.504Z,94.00
2019-03-16T01:21:05.373Z,94.00
2019-03-16T01:23:38.484Z,94.00
2019-03-16T01:26:11.256Z,93.80
2019-03-16T01:28:44.128Z,93.90
2019-03-16T01:31:17.183Z,94.00
2019-03-16T01:33:50.199Z,94.10
2019-03-16T01:36:23.087Z,93.80
2019-03-16T01:38:56.172Z,93.80
2019-03-16T01:41:28.828Z,93.70
2019-03-16T01:44:01.641Z,93.50
2019-03-16T01:46:34.522Z,93.60
2019-03-16T01:49:07.658Z,93.40
2019-03-16T01:51:40.603Z,93.40
2019-03-16T01:54:13.861Z,93.60
2019-03-16T01:56:46.876Z,93.60
2019-03-16T01:59:19.675Z,93.80
2019-03-16T02:01:52.712Z,93.80
2019-03-16T02:04:25.664Z,94.00
2019-03-16T02:06:58.580Z,94.30
2019-03-16T02:09:31.714Z,94.40
2019-03-16T02:12:05.700Z,94.30
2019-03-16T02:14:38.743Z,94.20
2019-03-16T02:17:11.915Z,94.50
2019-03-16T02:19:45.708Z,94.00
2019-03-16T02:22:19.709Z,94.00
2019-03-16T02:24:52.720Z,93.80
2019-03-16T02:27:25.462Z,93.30
2019-03-16T02:29:59.491Z,93.00
2019-03-16T02:32:32.460Z,93.20
2019-03-16T02:35:05.706Z,93.40
2019-03-16T02:37:39.808Z,93.50
2019-03-16T02:40:12.935Z,93.50
2019-03-16T02:42:45.885Z,93.50
2019-03-16T02:45:18.717Z,93.80
2019-03-16T02:47:52.114Z,94.00
2019-03-16T02:50:24.861Z,94.50
2019-03-16T02:52:57.595Z,94.90
2019-03-16T02:55:30.397Z,95.10
2019-03-16T02:58:03.519Z,95.40
2019-03-16T03:00:36.750Z,95.70
2019-03-16T03:03:09.715Z,95.80
2019-03-16T03:05:42.501Z,95.90
2019-03-16T03:08:15.400Z,96.10
2019-03-16T03:10:48.847Z,96.30
2019-03-16T03:13:21.518Z,96.50
2019-03-16T03:15:54.639Z,96.80
2019-03-16T03:18:27.629Z,96.80
2019-03-16T03:21:00.809Z,96.90
2019-03-16T03:23:34.798Z,97.30
2019-03-16T03:26:07.501Z,97.50
2019-03-16T03:28:40.747Z,97.20
2019-03-16T03:31:15.345Z,97.40
2019-03-16T03:33:59.646Z,97.50
2019-03-16T03:36:23.028Z,97.80
2019-03-16T03:38:55.742Z,97.80
2019-03-16T03:41:28.867Z,98.00
2019-03-16T03:44:01.597Z,98.20
2019-03-16T03:46:34.963Z,98.20
2019-03-16T03:49:08.265Z,98.10
2019-03-16T03:51:42.779Z,98.10
2019-03-16T03:54:15.933Z,97.90
2019-03-16T03:56:48.744Z,98.20
2019-03-16T03:59:21.722Z,98.30
2019-03-16T04:01:54.535Z,97.40
2019-03-16T04:04:27.596Z,97.90
2019-03-16T04:07:00.454Z,98.30
2019-03-16T04:09:33.217Z,98.20
2019-03-16T04:12:05.993Z,98.50
2019-03-16T04:14:38.652Z,98.60
2019-03-16T04:17:11.846Z,98.80
2019-03-16T04:19:45.089Z,99.00
2019-03-16T04:22:18.027Z,99.20
2019-03-16T04:24:50.893Z,99.50
2019-03-16T04:27:23.877Z,99.70
2019-03-16T04:29:56.647Z,99.80
2019-03-16T04:32:29.821Z,99.90
2019-03-16T04:35:02.771Z,99.90
2019-03-16T04:37:35.924Z,99.60
2019-03-16T04:40:08.869Z,99.10
2019-03-16T04:42:41.895Z,99.40
2019-03-16T04:45:15.257Z,99.50
2019-03-16T04:47:48.453Z,99.50
2019-03-16T04:50:21.679Z,99.90
2019-03-16T04:52:54.981Z,99.90
2019-03-16T04:55:27.997Z,99.80
2019-03-16T04:58:01.162Z,99.60
2019-03-16T05:00:34.491Z,99.80
2019-03-16T05:03:08.519Z,99.90
2019-03-16T05:05:42.008Z,99.90
2019-03-16T05:08:14.774Z,99.90
2019-03-16T05:10:47.956Z,99.70
2019-03-16T05:13:20.983Z,99.30
2019-03-16T05:15:54.207Z,99.40
2019-03-16T05:18:26.885Z,99.10
2019-03-16T05:21:00.265Z,99.30
2019-03-16T05:23:34.688Z,99.50
2019-03-16T05:26:07.757Z,99.90
2019-03-16T05:28:40.558Z,99.50
2019-03-16T05:31:13.410Z,99.00
2019-03-16T05:33:46.234Z,97.80
2019-03-16T05:36:19.403Z,98.10
2019-03-16T05:38:52.336Z,98.30
2019-03-16T05:41:25.792Z,98.20
2019-03-16T05:43:59.167Z,97.70
2019-03-16T05:46:32.566Z,97.20
2019-03-16T05:49:05.369Z,96.60
2019-03-16T05:51:38.377Z,95.00
2019-03-16T05:54:11.871Z,93.40
2019-03-16T05:56:46.242Z,92.20
2019-03-16T05:59:19.425Z,91.70
2019-03-16T06:01:52.849Z,91.20
2019-03-16T06:04:25.640Z,90.20
2019-03-16T06:06:58.893Z,90.10
2019-03-16T06:09:32.425Z,88.00
2019-03-16T06:12:16.171Z,85.40
2019-03-16T06:14:49.702Z,83.20
2019-03-16T06:17:22.686Z,80.40
2019-03-16T06:19:55.415Z,79.50
2019-03-16T06:22:28.485Z,75.60
2019-03-16T06:25:01.639Z,76.50
2019-03-16T06:27:34.681Z,75.10
2019-03-16T06:30:08.543Z,73.00
2019-03-16T06:32:41.847Z,71.30
2019-03-16T06:35:24.365Z,69.00
2019-03-16T06:37:50.341Z,67.70
2019-03-16T06:40:23.536Z,66.90
2019-03-16T06:42:56.920Z,66.60
2019-03-16T06:45:30.337Z,65.10
2019-03-16T06:48:04.174Z,65.30
2019-03-16T06:50:37.573Z,66.50
2019-03-16T06:53:11.033Z,65.30
2019-03-16T06:55:44.533Z,66.50
2019-03-16T06:58:18.302Z,64.60
2019-03-16T07:00:52.723Z,62.50
2019-03-16T07:03:26.243Z,62.10
2019-03-16T07:06:00.186Z,61.20
2019-03-16T07:08:33.218Z,61.70
2019-03-16T07:11:06.691Z,60.60
2019-03-16T07:13:40.174Z,60.10
2019-03-16T07:16:13.211Z,60.00
2019-03-16T07:18:58.300Z,60.10
2019-03-16T07:21:22.163Z,61.50
2019-03-16T07:23:55.014Z,61.20
2019-03-16T07:26:28.224Z,61.60
2019-03-16T07:29:01.634Z,63.00
2019-03-16T07:31:36.299Z,64.70
2019-03-16T07:34:09.468Z,65.80
2019-03-16T07:36:43.038Z,65.30
2019-03-16T07:39:16.087Z,62.90
2019-03-16T07:41:49.359Z,62.70
2019-03-16T07:44:22.993Z,66.50
2019-03-16T07:46:56.402Z,62.30
2019-03-16T07:49:29.634Z,62.20
2019-03-16T07:52:03.373Z,60.00
2019-03-16T07:54:36.846Z,61.20
2019-03-16T07:57:10.343Z,62.40
2019-03-16T07:59:43.823Z,60.50
2019-03-16T08:02:17.255Z,62.00
2019-03-16T08:04:50.263Z,57.90
2019-03-16T08:07:23.811Z,56.60
2019-03-16T08:09:58.292Z,55.90
2019-03-16T08:12:32.501Z,55.20
2019-03-16T08:15:06.529Z,53.70
2019-03-16T08:17:41.177Z,54.60
2019-03-16T08:20:14.775Z,54.30
2019-03-16T08:22:47.764Z,54.60
2019-03-16T08:25:21.179Z,54.20
2019-03-16T08:27:55.385Z,54.80
2019-03-16T08:30:28.402Z,55.30
2019-03-16T08:33:03.770Z,53.80
2019-03-16T08:35:37.193Z,55.00
2019-03-16T08:38:10.285Z,54.90
2019-03-16T08:40:43.771Z,53.80
2019-03-16T08:43:16.945Z,54.60
2019-03-16T08:45:50.174Z,51.70
2019-03-16T08:48:23.504Z,52.90
2019-03-16T08:50:57.111Z,52.30
2019-03-16T08:53:30.387Z,51.10
2019-03-16T08:56:03.235Z,50.80
2019-03-16T08:58:36.189Z,51.70
2019-03-16T09:01:09.372Z,51.80
2019-03-16T09:03:43.845Z,52.40
2019-03-16T09:06:17.074Z,53.00
2019-03-16T09:08:50.256Z,52.70
2019-03-16T09:11:23.126Z,53.30
2019-03-16T09:13:56.287Z,53.50
2019-03-16T09:16:29.537Z,53.40
2019-03-16T09:19:03.060Z,51.60
2019-03-16T09:21:36.295Z,53.90
2019-03-16T09:24:09.249Z,53.90
2019-03-16T09:26:43.030Z,52.40
2019-03-16T09:29:16.144Z,53.30
2019-03-16T09:31:48.961Z,53.50
2019-03-16T09:34:21.656Z,51.10
2019-03-16T09:36:55.471Z,52.40
2019-03-16T09:39:30.856Z,52.80
2019-03-16T09:42:03.962Z,52.20
2019-03-16T09:44:37.244Z,51.70
2019-03-16T09:47:10.128Z,52.00
2019-03-16T09:49:43.430Z,51.80
2019-03-16T09:52:16.456Z,51.60
2019-03-16T09:54:49.528Z,51.50
2019-03-16T09:57:22.940Z,50.80
2019-03-16T09:59:56.072Z,50.50
2019-03-16T10:02:29.136Z,50.50
2019-03-16T10:05:02.491Z,51.20
2019-03-16T10:07:35.722Z,52.20
2019-03-16T10:10:09.967Z,51.00
2019-03-16T10:12:43.220Z,50.90
2019-03-16T10:17:50.436Z,50.00
2019-03-16T10:20:23.883Z,50.00
2019-03-16T10:22:57.078Z,49.50
2019-03-16T10:25:30.509Z,49.80
2019-03-16T10:28:03.719Z,50.50
2019-03-16T10:30:37.031Z,49.70
2019-03-16T10:33:11.294Z,51.30
2019-03-16T10:35:44.951Z,50.40
2019-03-16T10:38:18.326Z,50.10
2019-03-16T10:40:51.406Z,50.40
2019-03-16T10:43:24.643Z,50.00
2019-03-16T10:45:57.992Z,49.30
2019-03-16T10:48:31.119Z,49.70
2019-03-16T10:51:04.605Z,50.10
2019-03-16T10:53:38.878Z,50.30
2019-03-16T10:56:12.299Z,49.60
2019-03-16T10:58:55.935Z,49.40
2019-03-16T11:01:21.137Z,49.20
2019-03-16T11:03:54.718Z,50.50
2019-03-16T11:06:27.959Z,49.00
2019-03-16T11:09:01.120Z,50.00
2019-03-16T11:11:34.855Z,50.40
2019-03-16T11:14:08.499Z,50.50
2019-03-16T11:16:41.756Z,49.90
2019-03-16T11:19:17.854Z,50.80
2019-03-16T11:21:51.253Z,51.10
2019-03-16T11:24:24.877Z,49.80
2019-03-16T11:26:58.030Z,50.50
2019-03-16T11:29:31.549Z,51.10
2019-03-16T11:32:04.859Z,49.30
2019-03-16T11:34:38.199Z,49.60
2019-03-16T11:37:11.798Z,48.90
2019-03-16T11:39:45.562Z,48.40
2019-03-16T11:42:18.737Z,48.90
2019-03-16T11:44:52.248Z,49.50
2019-03-16T11:47:25.067Z,49.80
2019-03-16T11:49:58.156Z,49.30
2019-03-16T11:52:31.429Z,48.90
2019-03-16T11:55:04.778Z,49.40
2019-03-16T11:57:38.158Z,50.50
2019-03-16T12:00:12.007Z,51.00
2019-03-16T12:02:45.582Z,50.20
2019-03-16T12:05:19.354Z,50.70
2019-03-16T12:07:52.780Z,50.30
2019-03-16T12:10:26.033Z,49.80
2019-03-16T12:12:59.573Z,50.30
2019-03-16T12:15:32.772Z,49.10
2019-03-16T12:18:06.102Z,49.50
2019-03-16T12:20:40.160Z,49.70
2019-03-16T12:23:13.751Z,49.50
2019-03-16T12:25:46.964Z,50.00
2019-03-16T12:28:20.188Z,49.30
2019-03-16T12:30:53.363Z,48.80
2019-03-16T12:33:26.795Z,48.70
2019-03-16T12:35:59.865Z,49.30
2019-03-16T12:38:33.054Z,49.70
2019-03-16T12:41:06.471Z,49.20
2019-03-16T12:43:59.012Z,49.10
2019-03-16T12:46:32.507Z,49.30
2019-03-16T12:49:07.373Z,49.80
2019-03-16T12:51:40.655Z,49.60
2019-03-16T12:54:14.157Z,50.00
2019-03-16T12:56:47.349Z,50.00
2019-03-16T12:59:20.292Z,49.30
2019-03-16T13:01:53.670Z,48.90
2019-03-16T13:04:28.013Z,49.10
2019-03-16T13:07:01.184Z,49.20
2019-03-16T13:09:35.902Z,49.70
2019-03-16T13:12:08.870Z,49.70
2019-03-16T13:14:41.983Z,50.00
2019-03-16T13:17:15.329Z,50.80
2019-03-16T13:19:48.591Z,50.50
2019-03-16T13:22:21.854Z,50.30
2019-03-16T13:24:55.059Z,50.90
2019-03-16T13:27:28.176Z,50.50
2019-03-16T13:30:01.475Z,51.00
2019-03-16T13:32:34.462Z,50.30
2019-03-16T13:35:08.383Z,49.80
2019-03-16T13:37:41.872Z,49.80
2019-03-16T13:40:15.763Z,50.50
2019-03-16T13:42:48.954Z,50.70
2019-03-16T13:45:22.535Z,50.30
2019-03-16T13:47:55.791Z,50.50
2019-03-16T13:50:29.139Z,50.70
2019-03-16T13:53:02.371Z,51.10
2019-03-16T13:55:35.864Z,50.90
2019-03-16T13:58:09.016Z,51.00
2019-03-16T14:00:42.381Z,51.60
2019-03-16T14:03:15.993Z,50.90
2019-03-16T14:05:49.116Z,51.20
2019-03-16T14:08:22.706Z,51.50
2019-03-16T14:10:55.938Z,51.30
2019-03-16T14:13:29.608Z,51.60
2019-03-16T14:16:02.891Z,52.00
2019-03-16T14:18:36.087Z,51.90
2019-03-16T14:21:10.327Z,52.50
2019-03-16T14:23:43.855Z,51.90
2019-03-16T14:26:17.206Z,52.10
2019-03-16T14:28:50.382Z,52.60
2019-03-16T14:31:23.628Z,52.90
2019-03-16T14:33:57.051Z,53.10
2019-03-16T14:36:30.386Z,52.90
2019-03-16T14:39:05.263Z,52.90
2019-03-16T14:41:38.479Z,53.30
2019-03-16T14:44:12.928Z,53.00
2019-03-16T14:46:46.349Z,53.40
2019-03-16T14:49:19.586Z,53.40
2019-03-16T14:51:52.614Z,53.60
2019-03-16T14:54:25.934Z,53.30
2019-03-16T14:57:01.825Z,53.60
2019-03-16T14:59:34.360Z,53.80
2019-03-16T15:02:07.856Z,54.70
2019-03-16T15:04:41.235Z,53.80
2019-03-16T15:07:14.481Z,53.10
2019-03-16T15:09:47.623Z,53.30
2019-03-16T15:12:20.905Z,53.30
2019-03-16T15:14:53.914Z,53.20
2019-03-16T15:17:27.272Z,53.10
2019-03-16T15:20:00.471Z,53.90
2019-03-16T15:22:34.583Z,53.40
2019-03-16T15:25:11.153Z,54.10
2019-03-16T15:27:43.766Z,53.40
2019-03-16T15:30:17.331Z,53.40
2019-03-16T15:32:50.647Z,53.10
2019-03-16T15:35:24.250Z,53.00
2019-03-16T15:37:57.567Z,53.40
2019-03-16T15:40:30.861Z,53.00
2019-03-16T15:43:04.323Z,52.90
2019-03-16T15:45:37.789Z,53.20
2019-03-16T15:48:11.237Z,53.60
2019-03-16T15:50:44.396Z,53.60
2019-03-16T15:53:17.916Z,54.20
2019-03-16T15:55:51.346Z,54.00
2019-03-16T15:58:24.428Z,54.80
2019-03-16T16:01:03.489Z,55.50
2019-03-16T16:03:33.494Z,55.90
2019-03-16T16:06:07.048Z,55.50
2019-03-16T16:08:40.269Z,55.00
2019-03-16T16:11:14.284Z,55.10
2019-03-16T16:13:51.040Z,55.20
2019-03-16T16:16:24.807Z,55.70
2019-03-16T16:19:01.084Z,55.70
2019-03-16T16:21:36.098Z,56.10
2019-03-16T16:24:09.378Z,56.50
2019-03-16T16:26:42.967Z,57.10
2019-03-16T16:29:18.345Z,57.40
2019-03-16T16:31:51.954Z,57.80
2019-03-16T16:34:25.412Z,58.30
2019-03-16T16:36:59.117Z,58.70
2019-03-16T16:39:39.246Z,59.20
2019-03-16T16:42:13.989Z,59.50
2019-03-16T16:44:47.199Z,59.90
2019-03-16T16:50:06.806Z,59.90
2019-03-16T16:52:43.322Z,60.10
2019-03-16T16:55:19.145Z,59.70
2019-03-16T16:57:55.002Z,59.90
2019-03-16T17:00:34.750Z,59.60
2019-03-16T17:03:12.203Z,59.80
2019-03-16T17:05:51.171Z,59.80
2019-03-16T17:08:30.297Z,60.40
2019-03-16T17:11:08.696Z,60.80
2019-03-16T17:13:49.168Z,61.00
2019-03-16T17:16:35.253Z,61.50
2019-03-16T17:19:12.699Z,62.10
2019-03-16T17:21:53.859Z,62.40
2019-03-16T17:24:29.694Z,62.80
2019-03-16T17:27:07.661Z,63.10
2019-03-16T17:29:46.752Z,63.40
2019-03-16T17:32:20.111Z,63.90
2019-03-16T17:34:57.755Z,65.00
2019-03-16T17:37:37.510Z,65.10
2019-03-16T17:40:14.850Z,65.50
2019-03-16T17:42:52.619Z,66.20
2019-03-16T17:45:28.943Z,66.80
2019-03-16T17:48:10.393Z,67.00
2019-03-16T17:50:49.630Z,65.70
2019-03-16T17:53:30.335Z,65.20
2019-03-16T17:56:07.767Z,66.10
2019-03-16T17:58:44.853Z,66.20
2019-03-16T18:01:24.657Z,67.00
2019-03-16T18:04:04.165Z,67.70
2019-03-16T18:06:42.405Z,68.50
2019-03-16T18:09:18.393Z,69.10
2019-03-16T18:11:55.919Z,70.20
2019-03-16T18:14:32.665Z,71.10
2019-03-16T18:17:21.133Z,71.70
2019-03-16T18:19:58.099Z,72.60
2019-03-16T18:22:40.635Z,73.40
2019-03-16T18:25:16.836Z,74.00
2019-03-16T18:27:52.162Z,74.50
2019-03-16T18:30:28.212Z,75.00
2019-03-16T18:33:06.737Z,75.60
2019-03-16T18:35:41.410Z,76.30
2019-03-16T18:38:21.086Z,76.50
2019-03-16T18:40:58.428Z,78.00
2019-03-16T18:43:32.641Z,77.70
2019-03-16T18:46:08.269Z,78.70
2019-03-16T18:48:48.098Z,79.40
2019-03-16T18:51:24.530Z,79.60
2019-03-16T18:54:04.472Z,80.40
2019-03-16T18:56:38.271Z,80.50
2019-03-16T18:59:17.689Z,80.50
2019-03-16T19:01:57.759Z,80.50
2019-03-16T19:04:35.009Z,81.40
2019-03-16T19:07:12.647Z,81.80
2019-03-16T19:09:57.741Z,82.90
2019-03-16T19:12:37.898Z,82.90
2019-03-16T19:15:16.740Z,83.00
2019-03-16T19:17:59.022Z,83.00
2019-03-16T19:20:37.868Z,82.80
2019-03-16T19:23:17.424Z,83.10
2019-03-16T19:25:53.730Z,83.50
2019-03-16T19:28:33.810Z,84.00
2019-03-16T19:31:09.365Z,84.20
2019-03-16T19:33:49.486Z,85.40
2019-03-16T19:36:27.101Z,85.20
2019-03-16T19:39:05.974Z,85.50
2019-03-16T19:41:44.653Z,85.70
2019-03-16T19:44:21.271Z,85.90
2019-03-16T19:46:57.834Z,86.10
2019-03-16T19:49:38.885Z,86.40
2019-03-16T19:52:16.398Z,87.00
2019-03-16T19:54:57.521Z,87.20
2019-03-16T19:57:33.256Z,87.50
2019-03-16T20:00:14.461Z,88.70
2019-03-16T20:02:51.936Z,88.50
2019-03-16T20:05:32.875Z,89.10
2019-03-16T20:08:09.595Z,88.70
2019-03-16T20:10:45.167Z,88.80
2019-03-16T20:13:18.593Z,89.20
2019-03-16T20:15:51.836Z,90.00
2019-03-16T20:18:25.071Z,90.00
2019-03-16T20:20:58.032Z,90.10
2019-03-16T20:23:30.907Z,90.20
2019-03-16T20:26:04.264Z,90.30
2019-03-16T20:28:37.743Z,90.20
2019-03-16T20:31:11.186Z,90.10
2019-03-16T20:33:44.404Z,90.10
2019-03-16T20:36:17.656Z,90.20
2019-03-16T20:38:50.869Z,90.10
2019-03-16T20:41:35.627Z,90.00
2019-03-16T20:44:01.342Z,89.80
2019-03-16T20:46:36.433Z,89.70
2019-03-16T20:49:09.864Z,89.60
2019-03-16T20:51:43.180Z,89.10
2019-03-16T20:54:17.003Z,88.90
2019-03-16T20:56:50.088Z,88.50
2019-03-16T20:59:23.326Z,88.20
2019-03-16T21:01:56.568Z,87.90
2019-03-16T21:04:29.941Z,87.70
2019-03-16T21:07:28.261Z,87.60
2019-03-16T21:10:23.140Z,87.20
2019-03-16T21:12:58.819Z,87.50
2019-03-16T21:15:32.984Z,86.30
2019-03-16T21:18:06.079Z,86.90
2019-03-16T21:20:39.552Z,86.10
2019-03-16T21:23:12.929Z,86.00
2019-03-16T21:25:45.999Z,85.90
2019-03-16T21:28:19.883Z,85.80
2019-03-16T21:30:53.009Z,86.10
2019-03-16T21:33:29.822Z,85.90
2019-03-16T21:36:01.347Z,86.00
2019-03-16T21:38:36.048Z,86.30
2019-03-16T21:41:09.589Z,86.20
2019-03-16T21:43:42.865Z,86.60
2019-03-16T21:46:16.459Z,86.50
2019-03-16T21:48:52.726Z,86.50
2019-03-16T21:51:26.119Z,86.90
2019-03-16T21:54:28.151Z,87.10
2019-03-16T21:57:01.805Z,87.10
2019-03-16T21:59:35.084Z,87.10
2019-03-16T22:02:09.791Z,87.20
2019-03-16T22:04:44.504Z,87.30
2019-03-16T22:07:17.388Z,87.20
2019-03-16T22:09:50.759Z,87.30
2019-03-16T22:12:23.933Z,87.30
2019-03-16T22:14:57.028Z,87.20
2019-03-16T22:17:30.120Z,87.20
2019-03-16T22:20:03.395Z,87.40
2019-03-16T22:22:36.338Z,87.70
2019-03-16T22:25:09.367Z,87.40
2019-03-16T22:27:42.419Z,87.30
2019-03-16T22:30:15.791Z,87.80
2019-03-16T22:32:48.551Z,87.80
2019-03-16T22:35:21.623Z,88.00
2019-03-16T22:37:57.809Z,88.00
2019-03-16T22:40:30.614Z,88.00
2019-03-16T22:43:03.827Z,88.20
2019-03-16T22:45:36.947Z,88.30
2019-03-16T22:48:10.195Z,88.40
2019-03-16T22:50:43.316Z,88.40
2019-03-16T22:53:16.359Z,88.70
2019-03-16T22:55:49.143Z,88.70
2019-03-16T22:58:22.509Z,88.70
2019-03-16T23:00:55.790Z,88.60
2019-03-16T23:03:28.592Z,88.70
2019-03-16T23:06:02.066Z,88.90
2019-03-16T23:08:37.418Z,89.30
2019-03-16T23:11:09.419Z,89.70
2019-03-16T23:13:42.470Z,90.00
2019-03-16T23:16:15.414Z,90.00
2019-03-16T23:18:48.207Z,90.10
2019-03-16T23:21:21.012Z,90.40
2019-03-16T23:23:53.741Z,90.30
2019-03-16T23:26:38.022Z,90.40
2019-03-16T23:29:01.216Z,90.60
2019-03-16T23:31:34.159Z,90.80
2019-03-16T23:34:18.347Z,90.80
2019-03-16T23:36:42.780Z,90.80
2019-03-16T23:39:15.577Z,90.80
2019-03-16T23:41:48.525Z,91.50
2019-03-16T23:44:22.634Z,91.20
2019-03-16T23:46:55.377Z,91.40
2019-03-16T23:49:28.314Z,91.40
2019-03-16T23:52:01.210Z,91.50
2019-03-16T23:54:33.850Z,91.50
2019-03-16T23:57:06.566Z,91.50
2019-03-16T23:59:39.428Z,91.60
